Praia Norte, Brazil
Current Conditions -  °F | °C
As of 8:00 PM on Wednesday 22 Oct 2014 (Local Time) from SBIZ Reporting Station
Thunderstorm Thunderstorm  
Wind Chill: 82°   Ceiling: Unl
Heat Index: 88°   Visibility: 6mi
Dew Point: 73°   Wind: 6mph
Humidity: 74%   Direction: 300°WNW
Pressure: 29.88"   Gusts: NA
Location:  5.39°S, 47.81°W
Report Text: SBIZ 222300Z 30005KT 9999 VCTS SCT028 FEW032CB 28/23 Q1012
Loading
Personal Weather Stations






























Interactive Weather Map
Tropical Storm Tracking
New forecast layout! Learn more

10-Day Weather Forecast

Advertisements
Track Severe Weather on mobile